createdAt,value
2022-12-31T00:00:57.973Z,24.45
2022-12-31T00:04:01.127Z,22.47
2022-12-31T00:07:04.629Z,24.77
2022-12-31T00:10:10.824Z,22.45
2022-12-31T00:13:15.882Z,24.10
2022-12-31T00:16:21.775Z,23.67
2022-12-31T00:19:24.717Z,23.10
2022-12-31T00:22:27.757Z,24.80
2022-12-31T00:25:31.011Z,23.87
2022-12-31T00:28:35.935Z,24.12
2022-12-31T00:31:40.214Z,23.67
2022-12-31T00:34:43.596Z,22.70
2022-12-31T00:37:46.342Z,22.57
2022-12-31T00:40:53.183Z,23.00
2022-12-31T00:43:56.249Z,23.17
2022-12-31T00:46:59.473Z,22.05
2022-12-31T00:50:02.243Z,20.30
2022-12-31T00:53:05.374Z,21.30
2022-12-31T00:56:12.726Z,19.73
2022-12-31T00:59:16.769Z,19.95
2022-12-31T01:02:21.929Z,18.25
2022-12-31T01:05:25.102Z,19.03
2022-12-31T01:08:31.216Z,19.20
2022-12-31T01:11:34.948Z,18.70
2022-12-31T01:14:38.278Z,20.00
2022-12-31T01:17:41.346Z,19.52
2022-12-31T01:20:44.773Z,21.43
2022-12-31T01:23:48.048Z,20.20
2022-12-31T01:26:55.997Z,19.33
2022-12-31T01:30:03.729Z,20.05
2022-12-31T01:33:07.079Z,17.40
2022-12-31T01:36:14.113Z,19.67
2022-12-31T01:39:17.042Z,19.77
2022-12-31T01:42:22.000Z,19.80
2022-12-31T01:45:25.126Z,20.15
2022-12-31T01:48:28.876Z,19.37
2022-12-31T01:51:34.508Z,19.77
2022-12-31T01:54:44.739Z,20.30
2022-12-31T01:57:51.143Z,20.35
2022-12-31T02:00:55.251Z,19.42
2022-12-31T02:04:04.478Z,20.90
2022-12-31T02:07:09.128Z,19.10
2022-12-31T02:10:13.397Z,18.43
2022-12-31T02:13:16.442Z,20.05
2022-12-31T02:16:31.206Z,19.33
2022-12-31T02:19:52.165Z,18.80
2022-12-31T02:23:26.411Z,19.67
2022-12-31T02:26:48.129Z,18.83
2022-12-31T02:30:01.868Z,18.30
2022-12-31T02:33:04.942Z,18.65
2022-12-31T02:36:21.364Z,18.33
2022-12-31T02:39:28.621Z,17.33
2022-12-31T02:42:32.937Z,19.17
2022-12-31T02:45:48.020Z,17.85
2022-12-31T02:49:03.474Z,17.27
2022-12-31T02:52:21.882Z,17.37
2022-12-31T02:55:46.303Z,19.37
2022-12-31T02:59:43.608Z,17.20
2022-12-31T03:02:48.647Z,18.35
2022-12-31T03:05:51.519Z,17.15
2022-12-31T03:09:13.208Z,16.50
2022-12-31T03:12:36.553Z,17.03
2022-12-31T03:15:39.435Z,16.90
2022-12-31T03:19:01.125Z,17.27
2022-12-31T03:22:23.041Z,16.52
2022-12-31T03:25:36.124Z,15.88
2022-12-31T03:28:41.794Z,16.30
2022-12-31T03:31:45.220Z,16.50
2022-12-31T03:34:48.396Z,18.75
2022-12-31T03:37:52.174Z,20.05
2022-12-31T03:40:56.278Z,20.02
2022-12-31T03:43:58.812Z,18.63
2022-12-31T03:47:02.841Z,19.13
2022-12-31T03:50:08.591Z,18.12
2022-12-31T03:53:11.854Z,18.33
2022-12-31T03:56:14.365Z,18.30
2022-12-31T03:59:17.759Z,19.20
2022-12-31T04:02:28.266Z,18.23
2022-12-31T04:05:34.525Z,18.15
2022-12-31T04:08:37.872Z,18.85
2022-12-31T04:11:40.876Z,17.73
2022-12-31T04:14:43.702Z,17.93
2022-12-31T04:17:48.264Z,17.87
2022-12-31T04:20:52.994Z,18.00
2022-12-31T04:23:56.316Z,17.30
2022-12-31T04:27:07.021Z,17.48
2022-12-31T04:30:14.196Z,17.93
2022-12-31T04:33:17.125Z,17.53
2022-12-31T04:36:20.576Z,17.48
2022-12-31T04:39:25.022Z,18.10
2022-12-31T04:42:31.608Z,17.08
2022-12-31T04:45:34.989Z,17.37
2022-12-31T04:48:38.072Z,19.27
2022-12-31T04:51:40.834Z,19.27
2022-12-31T04:54:45.630Z,17.75
2022-12-31T04:57:50.197Z,17.20
2022-12-31T05:00:55.462Z,17.83
2022-12-31T05:03:58.830Z,18.90
2022-12-31T05:07:03.449Z,17.40
2022-12-31T05:10:06.852Z,17.73
2022-12-31T05:13:11.604Z,18.27
2022-12-31T05:16:14.789Z,18.37
2022-12-31T05:19:18.021Z,17.40
2022-12-31T05:22:29.712Z,17.05
2022-12-31T05:25:33.371Z,18.67
2022-12-31T05:28:37.121Z,18.27
2022-12-31T05:31:41.779Z,18.27
2022-12-31T05:34:44.642Z,16.12
2022-12-31T05:37:49.082Z,18.87
2022-12-31T05:41:05.975Z,17.35
2022-12-31T05:44:10.739Z,18.08
2022-12-31T05:47:17.551Z,18.27
2022-12-31T05:50:20.708Z,18.33
2022-12-31T05:53:29.835Z,16.92
2022-12-31T05:56:33.018Z,17.45
2022-12-31T05:59:37.041Z,17.55
2022-12-31T06:02:49.629Z,17.23
2022-12-31T06:05:53.902Z,16.70
2022-12-31T06:08:56.990Z,18.37
2022-12-31T06:12:06.719Z,18.35
2022-12-31T06:15:11.436Z,17.55
2022-12-31T06:18:15.871Z,17.47
2022-12-31T06:21:20.939Z,17.60
2022-12-31T06:24:26.021Z,17.98
2022-12-31T06:27:31.041Z,18.70
2022-12-31T06:30:34.470Z,18.12
2022-12-31T06:33:47.023Z,18.57
2022-12-31T06:36:54.654Z,19.60
2022-12-31T06:40:05.519Z,19.55
2022-12-31T06:43:09.775Z,19.20
2022-12-31T06:46:15.824Z,19.00
2022-12-31T06:49:19.677Z,21.03
2022-12-31T06:52:23.451Z,19.17
2022-12-31T06:55:28.715Z,20.00
2022-12-31T06:58:36.574Z,26.00
2022-12-31T07:02:04.901Z,20.27
2022-12-31T07:05:37.157Z,30.37
2022-12-31T07:09:08.291Z,19.67
2022-12-31T07:12:29.926Z,20.45
2022-12-31T07:16:01.564Z,20.58
2022-12-31T07:19:57.915Z,22.70
2022-12-31T07:23:02.035Z,21.50
2022-12-31T07:26:36.525Z,21.53
2022-12-31T07:29:51.376Z,23.30
2022-12-31T07:33:16.611Z,27.80
2022-12-31T07:36:59.787Z,24.15
2022-12-31T07:40:57.713Z,23.30
2022-12-31T07:44:11.286Z,21.50
2022-12-31T07:47:30.795Z,22.67
2022-12-31T07:50:37.500Z,21.33
2022-12-31T07:53:49.437Z,19.85
2022-12-31T07:57:04.475Z,20.60
2022-12-31T08:00:16.856Z,21.13
2022-12-31T08:03:39.767Z,21.75
2022-12-31T08:07:01.688Z,21.75
2022-12-31T08:10:19.091Z,20.35
2022-12-31T08:13:32.561Z,29.87
2022-12-31T08:16:37.759Z,22.87
2022-12-31T08:19:51.600Z,23.95
2022-12-31T08:23:18.763Z,22.27
2022-12-31T08:26:43.531Z,21.58
2022-12-31T08:29:59.503Z,20.07
2022-12-31T08:33:46.531Z,21.60
2022-12-31T08:37:20.422Z,20.20
2022-12-31T08:40:51.223Z,20.00
2022-12-31T08:44:34.622Z,20.73
2022-12-31T08:47:57.995Z,21.77
2022-12-31T08:51:27.704Z,23.10
2022-12-31T08:54:43.541Z,23.87
2022-12-31T08:57:56.099Z,22.90
2022-12-31T09:01:16.766Z,22.33
2022-12-31T09:04:43.548Z,21.83
2022-12-31T09:08:14.621Z,22.13
2022-12-31T09:11:31.141Z,19.77
2022-12-31T09:14:47.580Z,19.92
2022-12-31T09:18:05.435Z,17.00
2022-12-31T09:21:15.601Z,16.57
2022-12-31T09:24:29.394Z,19.40
2022-12-31T09:27:48.413Z,20.60
2022-12-31T09:31:04.836Z,19.62
2022-12-31T09:34:25.565Z,18.12
2022-12-31T09:38:12.602Z,19.33
2022-12-31T09:41:43.027Z,17.30
2022-12-31T09:45:25.802Z,17.90
2022-12-31T09:49:05.653Z,21.17
2022-12-31T09:52:58.414Z,20.37
2022-12-31T09:56:32.437Z,22.43
2022-12-31T10:00:09.744Z,21.13
2022-12-31T10:03:57.612Z,22.58
2022-12-31T10:07:27.440Z,25.88
2022-12-31T10:10:56.581Z,26.30
2022-12-31T10:14:47.374Z,25.27
2022-12-31T10:18:27.783Z,26.53
2022-12-31T10:22:05.572Z,24.58
2022-12-31T10:25:39.164Z,24.33
2022-12-31T10:28:55.425Z,26.33
2022-12-31T10:32:26.250Z,22.27
2022-12-31T10:35:45.515Z,22.50
2022-12-31T10:39:15.395Z,21.48
2022-12-31T10:43:11.591Z,18.42
2022-12-31T10:46:34.673Z,18.20
2022-12-31T10:49:52.612Z,18.63
2022-12-31T10:53:33.943Z,19.13
2022-12-31T10:57:46.440Z,19.52
2022-12-31T11:01:13.620Z,19.55
2022-12-31T11:04:52.660Z,20.25
2022-12-31T11:08:25.678Z,20.47
2022-12-31T11:11:46.407Z,20.50
2022-12-31T11:15:18.472Z,21.05
2022-12-31T11:18:44.519Z,20.02
2022-12-31T11:22:10.655Z,19.10
2022-12-31T11:25:33.857Z,19.93
2022-12-31T11:29:18.499Z,18.10
2022-12-31T11:32:30.436Z,18.85
2022-12-31T11:36:07.877Z,18.27
2022-12-31T11:39:44.519Z,18.70
2022-12-31T11:43:09.630Z,19.47
2022-12-31T11:46:37.923Z,18.17
2022-12-31T11:49:45.056Z,18.02
2022-12-31T11:53:09.873Z,18.42
2022-12-31T11:56:28.478Z,18.75
2022-12-31T11:59:39.103Z,19.70
2022-12-31T12:02:58.742Z,18.93
2022-12-31T12:06:20.077Z,17.45
2022-12-31T12:09:35.463Z,17.15
2022-12-31T12:12:46.210Z,16.98
2022-12-31T12:16:13.730Z,18.90
2022-12-31T12:19:21.509Z,16.83
2022-12-31T12:22:27.749Z,16.10
2022-12-31T12:25:41.068Z,17.30
2022-12-31T12:28:52.134Z,20.60
2022-12-31T12:32:19.581Z,18.87
2022-12-31T12:35:27.751Z,17.60
2022-12-31T12:38:49.508Z,19.45
2022-12-31T12:42:04.646Z,18.17
2022-12-31T12:45:23.473Z,17.40
2022-12-31T12:48:40.204Z,20.70
2022-12-31T12:51:50.432Z,18.10
2022-12-31T12:55:22.684Z,17.87
2022-12-31T12:58:58.560Z,18.12
2022-12-31T13:02:18.663Z,19.23
2022-12-31T13:06:02.401Z,19.97
2022-12-31T13:09:47.511Z,19.03
2022-12-31T13:16:51.475Z,24.33
2022-12-31T13:20:11.069Z,27.35
2022-12-31T13:23:37.770Z,26.67
2022-12-31T13:27:17.578Z,24.07
2022-12-31T13:30:31.471Z,24.33
2022-12-31T13:33:55.953Z,25.52
2022-12-31T13:37:38.223Z,23.55
2022-12-31T13:40:59.502Z,23.97
2022-12-31T13:44:35.523Z,21.73
2022-12-31T13:47:54.440Z,19.95
2022-12-31T13:51:14.522Z,19.12
2022-12-31T13:54:41.385Z,18.20
2022-12-31T13:57:58.600Z,20.63
2022-12-31T14:01:22.690Z,22.92
2022-12-31T14:05:00.419Z,23.48
2022-12-31T14:08:17.827Z,18.87
2022-12-31T14:11:32.543Z,17.93
2022-12-31T14:15:00.831Z,18.83
2022-12-31T14:18:27.629Z,19.30
2022-12-31T14:21:56.763Z,19.45
2022-12-31T14:25:13.563Z,21.80
2022-12-31T14:28:31.780Z,23.80
2022-12-31T14:31:50.575Z,21.50
2022-12-31T14:35:25.529Z,20.75
2022-12-31T14:38:51.555Z,24.05
2022-12-31T14:42:39.363Z,26.50
2022-12-31T14:45:55.552Z,27.27
2022-12-31T14:49:17.108Z,23.70
2022-12-31T14:52:30.257Z,23.10
2022-12-31T14:55:54.507Z,28.67
2022-12-31T14:59:03.559Z,29.92
2022-12-31T15:02:27.901Z,31.43
2022-12-31T15:05:43.998Z,35.93
2022-12-31T15:09:16.480Z,31.35
2022-12-31T15:12:36.483Z,32.83
2022-12-31T15:16:14.361Z,35.25
2022-12-31T15:19:55.723Z,37.20
2022-12-31T15:22:59.177Z,39.10
2022-12-31T15:26:22.036Z,38.40
2022-12-31T15:29:47.475Z,39.92
2022-12-31T15:32:53.479Z,37.13
2022-12-31T15:36:30.776Z,37.43
2022-12-31T15:39:43.049Z,36.10
2022-12-31T15:42:59.508Z,37.10
2022-12-31T15:46:22.488Z,38.75
2022-12-31T15:49:40.936Z,54.08
2022-12-31T15:52:57.224Z,61.57
2022-12-31T15:56:21.825Z,52.03
2022-12-31T15:59:29.740Z,65.62
2022-12-31T16:02:43.567Z,66.28
2022-12-31T16:06:04.738Z,58.92
2022-12-31T16:09:25.579Z,60.17
2022-12-31T16:12:44.707Z,56.23
2022-12-31T16:15:53.677Z,49.78
2022-12-31T16:19:07.485Z,46.00
2022-12-31T16:22:31.500Z,41.22
2022-12-31T16:25:46.448Z,37.53
2022-12-31T16:28:50.212Z,34.17
2022-12-31T16:32:03.270Z,35.22
2022-12-31T16:35:32.484Z,34.70
2022-12-31T16:38:42.637Z,33.47
2022-12-31T16:41:54.531Z,35.53
2022-12-31T16:45:31.402Z,36.33
2022-12-31T16:48:59.566Z,35.35
2022-12-31T16:52:22.639Z,33.75
2022-12-31T16:55:34.910Z,38.75
2022-12-31T16:58:47.643Z,41.33
2022-12-31T17:01:57.978Z,40.67
2022-12-31T17:05:05.772Z,43.55
2022-12-31T17:08:27.496Z,44.90
2022-12-31T17:11:30.628Z,42.88
2022-12-31T17:14:49.451Z,44.30
2022-12-31T17:18:04.502Z,45.60
2022-12-31T17:21:14.511Z,44.20
2022-12-31T17:24:29.731Z,51.60
2022-12-31T17:27:39.618Z,47.53
2022-12-31T17:30:51.472Z,53.90
2022-12-31T17:34:35.544Z,53.80
2022-12-31T17:37:48.618Z,59.67
2022-12-31T17:41:04.353Z,57.05
2022-12-31T17:44:24.577Z,55.63
2022-12-31T17:47:40.456Z,55.10
2022-12-31T17:50:55.377Z,57.40
2022-12-31T17:54:16.660Z,55.22
2022-12-31T17:57:31.460Z,56.33
2022-12-31T18:00:39.460Z,55.25
2022-12-31T18:03:52.020Z,55.77
2022-12-31T18:06:56.476Z,67.53
2022-12-31T18:10:07.172Z,63.15
2022-12-31T18:13:18.567Z,60.83
2022-12-31T18:16:35.181Z,61.10
2022-12-31T18:23:20.489Z,51.97
2022-12-31T18:26:24.460Z,56.60
2022-12-31T18:29:40.391Z,57.67
2022-12-31T18:32:47.558Z,55.97
2022-12-31T18:36:08.666Z,58.13
2022-12-31T18:39:13.387Z,55.57
2022-12-31T18:42:23.446Z,59.13
2022-12-31T18:45:33.821Z,56.10
2022-12-31T18:48:44.415Z,59.05
2022-12-31T18:51:54.286Z,54.47
2022-12-31T18:54:58.985Z,56.20
2022-12-31T18:58:10.379Z,57.03
2022-12-31T19:01:30.247Z,51.83
2022-12-31T19:04:37.633Z,53.45
2022-12-31T19:07:48.457Z,54.37
2022-12-31T19:10:58.829Z,71.87
2022-12-31T19:14:06.036Z,84.87
2022-12-31T19:17:15.430Z,96.47
2022-12-31T19:20:27.686Z,77.70
2022-12-31T19:23:42.506Z,89.90
2022-12-31T19:26:54.508Z,88.73
2022-12-31T19:30:05.659Z,98.95
2022-12-31T19:33:16.545Z,121.68
2022-12-31T19:36:24.911Z,113.18
2022-12-31T19:39:30.741Z,94.00
2022-12-31T19:42:45.309Z,77.77
2022-12-31T19:45:56.468Z,73.10
2022-12-31T19:49:01.682Z,65.85
2022-12-31T19:52:07.480Z,64.95
2022-12-31T19:55:19.604Z,66.77
2022-12-31T19:58:33.430Z,70.27
2022-12-31T20:01:38.561Z,66.93
2022-12-31T20:04:53.094Z,66.40
2022-12-31T20:07:57.719Z,63.65
2022-12-31T20:11:12.434Z,66.10
2022-12-31T20:14:22.851Z,64.03
2022-12-31T20:17:27.719Z,62.97
2022-12-31T20:20:31.862Z,65.18
2022-12-31T20:23:36.532Z,69.37
2022-12-31T20:26:49.439Z,69.60
2022-12-31T20:29:53.507Z,72.60
2022-12-31T20:32:58.407Z,72.47
2022-12-31T20:36:05.085Z,73.28
2022-12-31T20:39:15.860Z,73.47
2022-12-31T20:42:20.147Z,70.57
2022-12-31T20:45:32.543Z,75.50
2022-12-31T20:48:38.520Z,71.50
2022-12-31T20:51:52.220Z,73.72
2022-12-31T20:54:57.520Z,74.57
2022-12-31T20:58:01.844Z,74.30
2022-12-31T21:01:08.693Z,76.40
2022-12-31T21:04:24.465Z,77.25
2022-12-31T21:07:42.532Z,83.53
2022-12-31T21:10:51.145Z,85.00
2022-12-31T21:13:56.775Z,80.90
2022-12-31T21:17:00.404Z,83.80
2022-12-31T21:20:07.592Z,80.47
2022-12-31T21:23:20.448Z,81.43
2022-12-31T21:26:28.987Z,77.45
2022-12-31T21:30:02.005Z,76.17
2022-12-31T21:33:06.832Z,76.13
2022-12-31T21:36:12.497Z,73.95
2022-12-31T21:39:22.307Z,71.72
2022-12-31T21:42:28.475Z,71.35
2022-12-31T21:45:34.531Z,63.47
2022-12-31T21:48:42.177Z,68.90
2022-12-31T21:52:06.608Z,68.05
2022-12-31T21:55:38.499Z,63.60
2022-12-31T21:58:44.294Z,67.82
2022-12-31T22:02:07.480Z,67.03
2022-12-31T22:05:21.436Z,64.33
2022-12-31T22:08:38.473Z,64.10
2022-12-31T22:11:42.938Z,65.07
2022-12-31T22:15:15.796Z,65.10
2022-12-31T22:18:24.079Z,76.53
2022-12-31T22:21:29.640Z,80.73
2022-12-31T22:24:35.566Z,76.82
2022-12-31T22:28:27.464Z,78.53
2022-12-31T22:31:29.319Z,73.47
2022-12-31T22:34:32.117Z,78.77
2022-12-31T22:41:07.381Z,75.82
2022-12-31T22:44:13.924Z,71.45
2022-12-31T22:47:18.877Z,71.62
2022-12-31T22:50:24.019Z,71.97
2022-12-31T22:53:27.555Z,73.67
2022-12-31T22:56:32.591Z,73.10
2022-12-31T22:59:40.619Z,74.87
2022-12-31T23:02:45.065Z,72.68
2022-12-31T23:05:53.063Z,75.17
2022-12-31T23:09:15.632Z,71.47
2022-12-31T23:12:20.378Z,66.90
2022-12-31T23:15:47.506Z,83.35
2022-12-31T23:19:15.382Z,149.18
2022-12-31T23:22:40.461Z,276.60
2022-12-31T23:25:53.405Z,248.23
2022-12-31T23:28:59.375Z,119.22
2022-12-31T23:32:03.450Z,91.40
2022-12-31T23:35:09.983Z,85.43
2022-12-31T23:38:17.876Z,81.83
2022-12-31T23:41:22.194Z,78.93
2022-12-31T23:44:26.732Z,78.18
2022-12-31T23:47:32.429Z,76.87
2022-12-31T23:50:35.917Z,82.55
2022-12-31T23:53:39.680Z,83.37
2022-12-31T23:56:46.688Z,85.97
2022-12-31T23:59:57.887Z,80.82
